Time;durP1;ratioP1;P1;durP2;ratioP2;P2;SDS_P1;SDS_P2;PMS_P1;PMS_P2;Temp;Humidity;BMP_temperature;BMP_pressure;BME280_temperature;BME280_humidity;BME280_pressure;Samples;Min_cycle;Max_cycle;Signal;HPM_P1;HPM_P2
2021/12/05 00:18:30;;;;;;;16.00;3.40;;;6.70;99.90;;;;;;4986340;28;37789;-73
2021/12/05 00:21:19;;;;;;;16.27;3.40;;;6.70;99.90;;;;;;4975446;28;37754;-73
2021/12/05 00:23:51;;;;;;;13.77;3.60;;;6.70;99.90;;;;;;4988747;28;49226;-73
2021/12/05 00:26:19;;;;;;;15.70;4.07;;;6.70;99.90;;;;;;4983422;28;36931;-73
2021/12/05 00:57:56;;;;;;;14.23;3.10;;;6.60;99.90;;;;;;4981952;28;38985;-73
2021/12/05 01:03:34;;;;;;;;;;;6.60;99.90;;;;;;4982949;28;40636;-74
2021/12/05 01:08:59;;;;;;;16.00;3.50;;;6.60;99.90;;;;;;4986997;28;49168;-73
2021/12/05 01:16:33;;;;;;;16.03;3.40;;;6.30;99.90;;;;;;4981951;28;38524;-73
2021/12/05 01:19:00;;;;;;;25.40;5.40;;;6.30;99.90;;;;;;4981068;28;38795;-73
2021/12/05 01:21:27;;;;;;;16.67;3.73;;;6.30;99.90;;;;;;4979755;28;37175;-73
2021/12/05 01:24:04;;;;;;;19.43;3.97;;;6.30;99.90;;;;;;4977258;28;38953;-74
2021/12/05 01:26:44;;;;;;;15.43;3.43;;;6.40;99.90;;;;;;4983354;28;47417;-74
2021/12/05 01:31:52;;;;;;;17.33;3.13;;;6.50;99.90;;;;;;4975629;28;36206;-74
2021/12/05 02:42:54;;;;;;;21.90;5.20;;;6.40;99.90;;;;;;4986345;28;39317;-74
2021/12/05 02:45:20;;;;;;;15.03;4.43;;;6.40;99.90;;;;;;4973586;28;39552;-73
2021/12/05 02:47:50;;;;;;;8.43;3.47;;;6.30;99.90;;;;;;4980577;28;37533;-73
2021/12/05 02:50:19;;;;;;;12.00;2.90;;;6.30;99.90;;;;;;4974183;28;38636;-74
2021/12/05 02:52:46;;;;;;;8.77;3.07;;;6.20;99.90;;;;;;4972996;28;40334;-73
2021/12/05 02:55:27;;;;;;;13.40;3.60;;;6.20;99.90;;;;;;4977255;28;35908;-74
2021/12/05 02:58:02;;;;;;;12.80;4.50;;;6.20;99.90;;;;;;4979258;28;38813;-74
2021/12/05 03:03:02;;;;;;;;;;;6.20;99.90;;;;;;4979941;28;38704;-74
2021/12/05 03:05:28;;;;;;;15.87;5.07;;;6.20;99.90;;;;;;4974036;28;48248;-73
2021/12/05 03:08:00;;;;;;;10.20;4.50;;;6.10;99.90;;;;;;4970427;28;37839;-73
2021/12/05 03:10:27;;;;;;;11.37;4.73;;;6.10;99.90;;;;;;4979147;28;41367;-74
2021/12/05 03:12:53;;;;;;;11.10;4.67;;;6.10;99.90;;;;;;4973065;28;38816;-73
2021/12/05 03:15:20;;;;;;;15.43;5.43;;;6.10;99.90;;;;;;4993361;28;35883;-73
2021/12/05 03:17:46;;;;;;;18.00;5.97;;;6.10;99.90;;;;;;4992165;28;38011;-73
2021/12/05 03:20:14;;;;;;;10.90;5.30;;;6.10;99.90;;;;;;4978268;28;38594;-73
2021/12/05 03:22:41;;;;;;;16.07;6.57;;;6.10;99.90;;;;;;4986328;28;37581;-74
2021/12/05 03:25:08;;;;;;;12.40;6.27;;;6.10;99.90;;;;;;4981156;28;36535;-73
2021/12/05 03:27:35;;;;;;;13.37;7.27;;;6.10;99.90;;;;;;4986638;28;38801;-73
2021/12/05 03:30:05;;;;;;;13.20;7.13;;;6.10;99.90;;;;;;4983582;28;37382;-74
2021/12/05 03:32:33;;;;;;;9.60;5.67;;;6.10;99.90;;;;;;4986444;28;48060;-73
2021/12/05 03:34:59;;;;;;;14.57;6.30;;;6.10;99.90;;;;;;4984089;28;36987;-73
2021/12/05 03:37:25;;;;;;;10.37;5.87;;;6.10;99.90;;;;;;4999398;28;37754;-74
2021/12/05 03:39:51;;;;;;;12.73;6.53;;;6.00;99.90;;;;;;4982943;28;38202;-73
2021/12/05 03:42:17;;;;;;;8.73;5.13;;;6.00;99.90;;;;;;4978039;28;38031;-73
2021/12/05 03:44:44;;;;;;;8.83;5.53;;;6.00;99.90;;;;;;4984839;28;37137;-73
2021/12/05 03:47:10;;;;;;;8.30;5.80;;;6.00;99.90;;;;;;4982178;28;39434;-73
2021/12/05 03:49:37;;;;;;;7.23;5.13;;;6.00;99.90;;;;;;4997423;28;36994;-73
2021/12/05 03:52:10;;;;;;;11.90;5.87;;;6.00;99.90;;;;;;4982338;28;37740;-73
2021/12/05 03:54:38;;;;;;;10.63;6.07;;;6.00;99.90;;;;;;4982986;28;37731;-73
2021/12/05 03:57:05;;;;;;;11.60;6.47;;;5.90;99.90;;;;;;4974943;28;38609;-73
2021/12/05 03:59:32;;;;;;;11.80;6.77;;;5.90;99.90;;;;;;4982561;28;38489;-73
2021/12/05 04:02:01;;;;;;;9.70;6.50;;;5.90;99.90;;;;;;4977920;28;37641;-73
2021/12/05 04:04:27;;;;;;;14.80;6.60;;;5.90;99.90;;;;;;4978494;28;46981;-73
2021/12/05 04:06:54;;;;;;;15.80;6.70;;;5.90;99.90;;;;;;4983377;28;37743;-74
2021/12/05 04:09:21;;;;;;;8.77;5.17;;;5.90;99.90;;;;;;4983829;28;37413;-73
2021/12/05 04:11:59;;;;;;;12.73;6.33;;;5.90;99.90;;;;;;4975489;28;38126;-73
2021/12/05 04:14:35;;;;;;;12.10;6.50;;;5.90;99.90;;;;;;4985987;28;37915;-73
2021/12/05 04:17:04;;;;;;;9.90;6.20;;;5.90;99.90;;;;;;4997175;28;37689;-73
2021/12/05 04:19:30;;;;;;;11.40;6.90;;;5.90;99.90;;;;;;4987789;28;47122;-73
2021/12/05 04:21:57;;;;;;;12.00;7.27;;;5.90;99.90;;;;;;4990051;28;37244;-73
2021/12/05 04:24:24;;;;;;;10.43;6.50;;;5.90;99.90;;;;;;4973219;28;37352;-73
2021/12/05 04:26:50;;;;;;;9.10;6.07;;;5.90;99.90;;;;;;4993953;28;41169;-73
2021/12/05 04:29:17;;;;;;;12.13;6.17;;;5.80;99.90;;;;;;4978053;28;38551;-74
2021/12/05 04:31:43;;;;;;;9.67;5.97;;;5.80;99.90;;;;;;4988821;28;37787;-74
2021/12/05 04:34:11;;;;;;;8.30;4.30;;;5.80;99.90;;;;;;4981955;28;37902;-73
2021/12/05 04:36:40;;;;;;;9.03;5.07;;;5.80;99.90;;;;;;4995285;28;39643;-73
2021/12/05 04:39:07;;;;;;;8.93;5.87;;;5.70;99.90;;;;;;4987081;28;40048;-73
2021/12/05 04:41:33;;;;;;;8.60;4.83;;;5.70;99.90;;;;;;4984326;28;38023;-74
2021/12/05 04:44:01;;;;;;;11.40;5.13;;;5.70;99.90;;;;;;4981844;28;37887;-73
2021/12/05 04:46:29;;;;;;;7.00;5.00;;;5.80;99.90;;;;;;4988516;28;47273;-73
2021/12/05 04:48:56;;;;;;;13.13;6.40;;;5.80;99.90;;;;;;4992480;28;38964;-73
2021/12/05 04:51:27;;;;;;;8.33;5.57;;;5.80;99.90;;;;;;4977256;28;38009;-73
2021/12/05 04:53:55;;;;;;;11.43;5.27;;;5.80;99.90;;;;;;4975275;28;37090;-73
2021/12/05 04:56:25;;;;;;;7.67;4.43;;;5.90;99.90;;;;;;4989975;28;40545;-74
2021/12/05 04:58:53;;;;;;;7.03;4.43;;;5.80;99.90;;;;;;4977726;28;38984;-73
2021/12/05 05:01:20;;;;;;;6.90;3.90;;;5.90;99.90;;;;;;4977144;28;39179;-73
2021/12/05 05:03:47;;;;;;;9.73;4.63;;;5.80;99.90;;;;;;4969836;28;37621;-73
2021/12/05 05:06:16;;;;;;;5.27;4.10;;;5.80;99.90;;;;;;4976143;28;39137;-73
2021/12/05 05:08:49;;;;;;;8.07;3.80;;;5.80;99.90;;;;;;4978365;28;38671;-73
2021/12/05 05:11:17;;;;;;;5.90;4.00;;;5.70;99.90;;;;;;4975815;28;39609;-73
2021/12/05 05:13:44;;;;;;;6.97;3.80;;;5.70;99.90;;;;;;4993710;28;37233;-73
2021/12/05 05:16:14;;;;;;;10.70;4.40;;;5.70;99.90;;;;;;4977359;28;39051;-73
2021/12/05 05:22:04;;;;;;;7.03;3.57;;;5.70;99.90;;;;;;4975293;28;38569;-73
2021/12/05 05:43:29;;;;;;;7.63;2.60;;;5.80;99.90;;;;;;4982499;28;37984;-73
2021/12/05 05:48:35;;;;;;;5.88;3.42;;;5.80;99.90;;;;;;4978379;28;48709;-73
2021/12/05 05:51:04;;;;;;;4.07;2.93;;;5.90;99.90;;;;;;4975763;28;38151;-73
2021/12/05 05:53:31;;;;;;;4.40;2.93;;;5.80;99.90;;;;;;4978324;28;47695;-73
2021/12/05 05:55:58;;;;;;;4.97;3.13;;;5.80;99.90;;;;;;4978086;28;38036;-73
2021/12/05 05:58:48;;;;;;;6.80;2.80;;;5.80;99.90;;;;;;4978026;28;38761;-73
2021/12/05 06:01:41;;;;;;;6.10;3.80;;;5.80;99.90;;;;;;4977234;28;39228;-74
2021/12/05 06:04:05;;;;;;;7.10;2.87;;;5.80;99.90;;;;;;4975939;28;37279;-73
2021/12/05 06:06:32;;;;;;;7.07;3.10;;;5.90;99.90;;;;;;4974690;28;36778;-73
2021/12/05 06:09:00;;;;;;;4.77;3.63;;;5.90;99.90;;;;;;4980047;28;39574;-73
2021/12/05 06:11:27;;;;;;;9.60;3.50;;;5.90;99.90;;;;;;4980748;28;46731;-73
2021/12/05 06:13:53;;;;;;;5.70;3.50;;;5.90;99.90;;;;;;4978180;28;39073;-73
2021/12/05 06:16:19;;;;;;;6.87;3.63;;;5.90;99.90;;;;;;4974864;28;37275;-73
2021/12/05 06:18:47;;;;;;;5.10;3.53;;;5.80;99.90;;;;;;4979932;28;38466;-73
2021/12/05 06:21:15;;;;;;;6.80;3.60;;;5.80;99.90;;;;;;4981895;28;38526;-74
2021/12/05 06:23:42;;;;;;;5.33;3.53;;;5.80;99.90;;;;;;4976786;28;38135;-73
2021/12/05 06:26:12;;;;;;;5.63;3.40;;;5.80;99.90;;;;;;4971755;28;37054;-74
2021/12/05 06:41:50;;;;;;;4.97;3.30;;;5.80;99.90;;;;;;4978221;28;39377;-73
2021/12/05 06:47:01;;;;;;;7.40;3.47;;;5.80;99.90;;;;;;4974415;28;37462;-73
2021/12/05 06:49:28;;;;;;;4.63;3.70;;;5.80;99.90;;;;;;4976671;28;48581;-73
2021/12/05 06:51:54;;;;;;;7.27;4.93;;;5.80;99.90;;;;;;4971253;28;38090;-73
2021/12/05 06:54:22;;;;;;;8.20;4.60;;;5.80;99.90;;;;;;4976035;28;38774;-73
2021/12/05 06:56:48;;;;;;;10.33;5.67;;;5.80;99.90;;;;;;4964759;28;36029;-73
2021/12/05 06:59:15;;;;;;;7.70;5.73;;;5.80;99.90;;;;;;4964888;28;40123;-73
2021/12/05 07:01:41;;;;;;;10.80;6.20;;;5.80;99.90;;;;;;4958182;28;38279;-73
2021/12/05 07:04:30;;;;;;;13.30;7.97;;;5.80;99.90;;;;;;4975502;28;38396;-73
2021/12/05 07:06:53;;;;;;;10.97;7.47;;;5.80;99.90;;;;;;4974501;28;36560;-74
2021/12/05 07:09:20;;;;;;;11.53;7.17;;;5.80;99.90;;;;;;4953377;28;37705;-73
2021/12/05 07:14:50;;;;;;;14.83;8.97;;;5.70;99.90;;;;;;4977759;28;49379;-72
2021/12/05 07:22:40;;;;;;;15.43;8.73;;;5.70;99.90;;;;;;4986789;28;49041;-72
2021/12/05 07:25:33;;;;;;;13.40;9.00;;;5.60;99.90;;;;;;4979693;28;39610;-72
2021/12/05 07:41:57;;;;;;;12.87;8.30;;;5.40;99.90;;;;;;4987903;28;49120;-71
2021/12/05 07:44:23;;;;;;;14.87;8.47;;;5.40;99.90;;;;;;4993693;28;38356;-71
2021/12/05 07:46:49;;;;;;;11.60;8.47;;;5.30;99.90;;;;;;4982163;28;38042;-72
2021/12/05 07:49:17;;;;;;;16.50;8.87;;;5.30;99.90;;;;;;4984154;28;40061;-71
2021/12/05 07:51:47;;;;;;;16.80;8.43;;;5.30;99.90;;;;;;4996487;28;38341;-72
2021/12/05 07:54:31;;;;;;;13.17;7.43;;;5.30;99.90;;;;;;4995396;28;39398;-71
2021/12/05 07:57:09;;;;;;;14.30;7.83;;;5.20;99.90;;;;;;4961754;28;37753;-72
2021/12/05 07:59:51;;;;;;;13.40;6.93;;;5.20;99.90;;;;;;4984435;28;47439;-72
2021/12/05 08:16:09;;;;;;;10.93;6.67;;;5.20;99.90;;;;;;4982855;28;38978;-72
2021/12/05 08:18:35;;;;;;;13.23;7.07;;;5.20;99.90;;;;;;4962980;28;47325;-72
2021/12/05 08:21:04;;;;;;;9.80;6.77;;;5.30;99.90;;;;;;4970618;28;35945;-72
2021/12/05 08:23:30;;;;;;;14.87;7.57;;;5.20;99.90;;;;;;4980549;28;47374;-72
2021/12/05 08:29:20;;;;;;;14.47;7.80;;;5.20;99.90;;;;;;4983041;28;48882;-72
2021/12/05 08:41:59;;;;;;;15.00;8.10;;;5.10;99.90;;;;;;4987639;28;37247;-72
2021/12/05 10:09:15;;;;;;;6.73;3.20;;;6.20;99.90;;;;;;4986319;28;38736;-72
2021/12/05 10:34:51;;;;;;;4.33;2.97;;;6.40;99.90;;;;;;4962361;28;49284;-73
2021/12/05 10:37:23;;;;;;;5.37;3.23;;;6.60;99.90;;;;;;4991638;28;39101;-73
2021/12/05 10:40:16;;;;;;;3.93;3.40;;;6.60;99.90;;;;;;4990304;28;39369;-73
2021/12/05 10:42:48;;;;;;;3.38;3.00;;;6.60;99.90;;;;;;4986013;28;47061;-73
2021/12/05 10:45:37;;;;;;;5.28;3.22;;;6.60;99.90;;;;;;5004881;28;38704;-73
2021/12/05 10:48:08;;;;;;;5.10;3.90;;;6.60;99.90;;;;;;4983594;28;37745;-73
2021/12/05 10:50:40;;;;;;;5.27;3.33;;;6.70;99.90;;;;;;4984638;28;38766;-73
2021/12/05 10:53:28;;;;;;;4.03;3.00;;;6.80;99.90;;;;;;4984980;28;37068;-73
2021/12/05 10:56:09;;;;;;;3.87;2.77;;;6.80;99.90;;;;;;4983130;28;37608;-73
2021/12/05 10:58:37;;;;;;;3.53;3.03;;;6.80;99.90;;;;;;4995236;28;48453;-73
2021/12/05 11:01:08;;;;;;;5.67;3.47;;;6.80;99.90;;;;;;4981967;28;37190;-73
2021/12/05 11:03:34;;;;;;;3.30;3.00;;;6.80;99.90;;;;;;4998158;28;37633;-73
2021/12/05 11:06:00;;;;;;;4.57;3.10;;;6.80;99.90;;;;;;4985316;28;38920;-74
2021/12/05 11:08:45;;;;;;;6.07;3.43;;;6.80;99.90;;;;;;4986613;28;47596;-74
2021/12/05 11:11:16;;;;;;;7.10;4.03;;;6.70;99.90;;;;;;4992001;28;37960;-73
2021/12/05 11:13:45;;;;;;;4.53;3.40;;;6.70;99.90;;;;;;4979144;28;37538;-72
2021/12/05 11:16:37;;;;;;;4.23;3.40;;;6.70;99.90;;;;;;4985620;28;38702;-74
2021/12/05 11:19:16;;;;;;;4.80;3.30;;;6.80;99.90;;;;;;4979658;28;39573;-74
2021/12/05 11:21:48;;;;;;;5.73;3.20;;;6.90;99.90;;;;;;4977196;28;38097;-73
2021/12/05 11:24:23;;;;;;;5.90;3.47;;;6.90;99.90;;;;;;4975535;28;37637;-74
2021/12/05 11:27:09;;;;;;;5.70;3.10;;;7.00;99.90;;;;;;5005301;28;37656;-74
2021/12/05 11:29:59;;;;;;;5.67;3.77;;;7.00;99.90;;;;;;4980474;28;47270;-73
2021/12/05 11:32:42;;;;;;;5.10;3.73;;;7.10;99.90;;;;;;4987598;28;39085;-74
2021/12/05 11:35:35;;;;;;;4.97;4.20;;;7.00;99.90;;;;;;4985279;28;37173;-74
2021/12/05 11:38:06;;;;;;;4.32;3.38;;;7.10;99.90;;;;;;4978948;28;38946;-73
2021/12/05 11:40:54;;;;;;;8.30;4.00;;;7.20;99.90;;;;;;4986672;28;37159;-74
2021/12/05 11:43:41;;;;;;;5.20;3.53;;;7.10;99.90;;;;;;5005308;28;36984;-74
2021/12/05 11:46:28;;;;;;;4.80;3.30;;;7.20;99.90;;;;;;4986415;28;37683;-73
2021/12/05 11:49:02;;;;;;;6.80;3.63;;;7.30;99.90;;;;;;4983716;28;37905;-74
2021/12/05 11:52:09;;;;;;;5.43;3.10;;;7.50;99.90;;;;;;4986920;28;47396;-74
2021/12/05 11:54:40;;;;;;;5.57;3.67;;;7.40;99.90;;;;;;4983166;28;47111;-73
2021/12/05 11:57:27;;;;;;;6.23;3.97;;;7.40;99.90;;;;;;4982643;28;41416;-74
2021/12/05 12:00:06;;;;;;;5.43;3.33;;;7.30;99.90;;;;;;4986349;28;38239;-73
2021/12/05 12:02:36;;;;;;;4.60;3.83;;;7.30;99.90;;;;;;4985088;28;46467;-74
2021/12/05 12:05:29;;;;;;;4.20;3.53;;;7.40;99.90;;;;;;4988190;28;37917;-73
2021/12/05 12:08:02;;;;;;;7.40;4.28;;;7.40;99.90;;;;;;5000346;28;47300;-74
2021/12/05 12:10:34;;;;;;;6.30;4.20;;;7.50;99.90;;;;;;4987042;28;48671;-74
2021/12/05 12:13:05;;;;;;;6.20;4.03;;;7.50;99.90;;;;;;5002135;28;37376;-74
2021/12/05 12:15:33;;;;;;;7.20;4.47;;;7.60;99.90;;;;;;4985101;28;48239;-74
2021/12/05 12:18:11;;;;;;;5.40;4.40;;;7.70;99.90;;;;;;4988356;28;38084;-74
2021/12/05 12:20:39;;;;;;;5.50;4.40;;;7.70;99.90;;;;;;4989097;28;47319;-74
2021/12/05 12:23:06;;;;;;;6.43;4.40;;;7.60;99.90;;;;;;4984740;28;38178;-74
2021/12/05 12:25:37;;;;;;;5.93;4.30;;;7.60;99.90;;;;;;4984729;28;38805;-74
2021/12/05 12:28:05;;;;;;;6.67;4.40;;;7.60;99.90;;;;;;4986417;28;36841;-74
2021/12/05 12:30:35;;;;;;;6.03;4.20;;;7.60;99.90;;;;;;4987597;28;38940;-74
2021/12/05 12:33:08;;;;;;;5.20;4.00;;;7.70;99.90;;;;;;4993054;28;39365;-72
2021/12/05 12:35:34;;;;;;;5.57;3.63;;;7.80;99.90;;;;;;4987287;28;39180;-71
2021/12/05 12:38:17;;;;;;;5.83;3.93;;;7.80;99.90;;;;;;4990204;28;37687;-72
2021/12/05 12:40:53;;;;;;;5.65;4.05;;;7.80;99.90;;;;;;4979609;28;49273;-72
2021/12/05 12:43:38;;;;;;;4.83;3.73;;;7.80;99.90;;;;;;4988600;28;37727;-75
2021/12/05 12:46:33;;;;;;;4.90;3.70;;;7.80;99.90;;;;;;4983020;28;37700;-72
2021/12/05 12:49:20;;;;;;;5.07;3.63;;;7.90;99.90;;;;;;4987285;28;37338;-73
2021/12/05 12:52:00;;;;;;;5.60;3.83;;;8.10;99.90;;;;;;4995203;28;46104;-73
2021/12/05 12:54:34;;;;;;;7.83;3.90;;;8.00;99.90;;;;;;4982914;28;38136;-73
2021/12/05 12:57:02;;;;;;;7.03;5.00;;;8.10;99.90;;;;;;4981043;28;37894;-74
2021/12/05 12:59:34;;;;;;;8.73;5.93;;;8.10;99.90;;;;;;5010479;28;47556;-74
2021/12/05 13:10:40;;;;;;;7.43;5.20;;;8.10;99.90;;;;;;4980505;28;38353;-75
2021/12/05 13:13:23;;;;;;;8.70;4.60;;;8.10;99.90;;;;;;4984978;28;39585;-74
2021/12/05 13:15:59;;;;;;;7.38;4.55;;;8.10;99.90;;;;;;5001390;28;37364;-74
2021/12/05 13:18:30;;;;;;;10.07;4.77;;;8.10;99.90;;;;;;4979055;28;37269;-74
2021/12/05 13:21:05;;;;;;;11.37;6.97;;;8.10;99.90;;;;;;4988311;28;36497;-74
2021/12/05 13:23:50;;;;;;;14.67;6.70;;;8.20;99.90;;;;;;4982825;28;47273;-74
2021/12/05 13:26:34;;;;;;;16.50;6.93;;;8.20;99.90;;;;;;4974410;28;39937;-74
2021/12/05 13:29:15;;;;;;;15.13;7.40;;;8.20;99.90;;;;;;5006449;28;38071;-74
2021/12/05 13:31:50;;;;;;;22.83;7.10;;;8.10;99.90;;;;;;4970460;28;49363;-73
2021/12/05 13:34:42;;;;;;;19.83;7.33;;;8.00;99.90;;;;;;4981349;28;38600;-74
2021/12/05 13:37:09;;;;;;;21.50;8.00;;;8.20;99.90;;;;;;4985956;28;39165;-74
2021/12/05 13:39:37;;;;;;;25.53;10.93;;;8.20;99.90;;;;;;4987880;28;38254;-74
2021/12/05 13:42:12;;;;;;;33.53;12.87;;;8.30;99.90;;;;;;4984942;28;36290;-74
2021/12/05 13:45:05;;;;;;;26.40;12.93;;;8.30;99.90;;;;;;4975560;28;39945;-77
2021/12/05 13:47:47;;;;;;;36.17;15.27;;;8.30;99.90;;;;;;4977968;28;48914;-77
2021/12/05 13:50:21;;;;;;;35.33;15.80;;;8.20;99.90;;;;;;4984404;28;37132;-76
2021/12/05 13:52:52;;;;;;;36.40;16.40;;;8.20;99.90;;;;;;4981695;28;37535;-76
2021/12/05 13:55:40;;;;;;;38.67;16.67;;;8.10;99.90;;;;;;4983002;28;38302;-76
2021/12/05 13:58:35;;;;;;;38.67;16.53;;;8.00;99.90;;;;;;4994755;28;39565;-76
2021/12/05 14:01:03;;;;;;;40.20;17.33;;;8.10;99.90;;;;;;4996006;28;37512;-77
2021/12/05 14:03:44;;;;;;;39.30;17.87;;;8.00;99.90;;;;;;4982302;28;48618;-76
2021/12/05 14:06:36;;;;;;;33.20;15.30;;;8.00;99.90;;;;;;4993493;28;39426;-76
2021/12/05 14:09:25;;;;;;;32.40;14.77;;;8.00;99.90;;;;;;4989094;28;38445;-76
2021/12/05 14:12:01;;;;;;;32.30;14.43;;;7.90;99.90;;;;;;4981586;28;47391;-76
2021/12/05 14:14:34;;;;;;;28.80;14.73;;;7.90;99.90;;;;;;4981706;28;48904;-76
2021/12/05 14:17:08;;;;;;;25.47;12.80;;;8.00;99.90;;;;;;4968144;28;38103;-76
2021/12/05 14:19:36;;;;;;;22.47;12.27;;;7.90;99.90;;;;;;4977375;28;45411;-76
2021/12/05 14:22:06;;;;;;;22.10;11.73;;;7.80;99.90;;;;;;4987930;28;38288;-76
2021/12/05 14:24:54;;;;;;;20.23;11.30;;;7.70;99.90;;;;;;5002531;28;36301;-75
2021/12/05 14:27:24;;;;;;;19.70;11.67;;;7.70;99.90;;;;;;4981426;28;39027;-75
2021/12/05 14:29:52;;;;;;;27.40;12.33;;;7.70;99.90;;;;;;4974486;28;37955;-76
2021/12/05 14:32:23;;;;;;;25.17;12.37;;;7.70;99.90;;;;;;4994841;28;38681;-75
2021/12/05 14:34:51;;;;;;;22.60;12.67;;;7.70;99.90;;;;;;4979979;28;37736;-76
2021/12/05 14:37:21;;;;;;;21.83;12.53;;;7.70;99.90;;;;;;4993515;28;37905;-76
2021/12/05 14:39:49;;;;;;;24.23;12.57;;;7.70;99.90;;;;;;4998666;28;37521;-75
2021/12/05 14:42:19;;;;;;;23.27;12.83;;;7.70;99.90;;;;;;4983329;28;39017;-76
2021/12/05 14:44:50;;;;;;;24.80;13.20;;;7.70;99.90;;;;;;4989581;28;36352;-75
2021/12/05 14:47:20;;;;;;;25.37;13.23;;;7.70;99.90;;;;;;4972359;28;37831;-75
2021/12/05 14:49:50;;;;;;;25.97;14.63;;;7.70;99.90;;;;;;4986749;28;41153;-76
2021/12/05 14:52:20;;;;;;;26.97;15.77;;;7.70;99.90;;;;;;4980578;28;38916;-75
2021/12/05 14:54:47;;;;;;;29.23;18.33;;;7.70;99.90;;;;;;4981607;28;38106;-75
2021/12/05 14:57:19;;;;;;;30.43;18.20;;;7.70;99.90;;;;;;4975031;28;39176;-76
2021/12/05 14:59:48;;;;;;;27.15;17.90;;;7.70;99.90;;;;;;4978146;28;38192;-76
2021/12/05 15:02:17;;;;;;;35.17;19.37;;;7.60;99.90;;;;;;4998857;28;39999;-76
2021/12/05 15:04:49;;;;;;;30.40;19.67;;;7.60;99.90;;;;;;4984284;28;37326;-76
2021/12/05 15:07:20;;;;;;;33.75;20.52;;;7.60;99.90;;;;;;4984479;28;39546;-76
2021/12/05 15:09:50;;;;;;;30.10;19.23;;;7.50;99.90;;;;;;4995700;28;38512;-76
2021/12/05 15:12:24;;;;;;;34.40;21.67;;;7.50;99.90;;;;;;4988990;28;38867;-76
2021/12/05 15:14:53;;;;;;;32.27;20.63;;;7.60;99.90;;;;;;4988144;28;36896;-74
2021/12/05 15:17:24;;;;;;;31.90;20.07;;;7.50;99.90;;;;;;4983495;28;39470;-76
2021/12/05 15:19:59;;;;;;;34.87;21.77;;;7.50;99.90;;;;;;4983587;28;38040;-76
2021/12/05 15:22:28;;;;;;;32.77;20.53;;;7.50;99.90;;;;;;4980852;28;37587;-75
2021/12/05 15:24:57;;;;;;;35.67;21.00;;;7.50;99.90;;;;;;5003955;28;38480;-75
2021/12/05 15:27:26;;;;;;;31.97;20.67;;;7.50;99.90;;;;;;4972451;28;38682;-74
2021/12/05 15:29:58;;;;;;;30.17;19.80;;;7.50;99.90;;;;;;4982562;28;38411;-75
2021/12/05 15:32:26;;;;;;;;;;;7.50;99.90;;;;;;4982341;28;39416;-75
2021/12/05 15:34:55;;;;;;;33.67;20.60;;;7.50;99.90;;;;;;4988801;28;38506;-75
2021/12/05 15:37:22;;;;;;;33.17;22.27;;;7.40;99.90;;;;;;4986037;28;38862;-76
2021/12/05 15:39:52;;;;;;;40.30;24.97;;;7.40;99.90;;;;;;4986980;28;39794;-75
2021/12/05 15:42:33;;;;;;;37.03;24.40;;;7.50;99.90;;;;;;4985948;28;38989;-75
2021/12/05 15:45:04;;;;;;;36.80;24.70;;;7.40;99.90;;;;;;4982335;28;38941;-75
2021/12/05 15:47:33;;;;;;;35.30;26.07;;;7.40;99.90;;;;;;4982456;28;47330;-76
2021/12/05 15:50:12;;;;;;;35.97;26.70;;;7.30;99.90;;;;;;4982327;28;39347;-76
2021/12/05 15:52:42;;;;;;;36.80;26.80;;;7.30;99.90;;;;;;4980020;28;46836;-76
2021/12/05 15:55:32;;;;;;;36.07;26.47;;;7.30;99.90;;;;;;4984129;28;37161;-76
2021/12/05 15:58:08;;;;;;;39.80;26.60;;;7.20;99.90;;;;;;5000132;28;43190;-76
2021/12/05 16:00:45;;;;;;;39.37;28.57;;;7.20;99.90;;;;;;4982221;28;49043;-76
2021/12/05 16:03:17;;;;;;;37.20;27.17;;;7.10;99.90;;;;;;4994284;28;39057;-76
2021/12/05 16:05:46;;;;;;;37.17;26.75;;;7.10;99.90;;;;;;4990700;28;37918;-75
2021/12/05 16:08:16;;;;;;;37.23;26.10;;;7.00;99.90;;;;;;4991305;28;40298;-75
2021/12/05 16:10:49;;;;;;;38.27;26.73;;;6.90;99.90;;;;;;4992854;28;38439;-75
2021/12/05 16:13:17;;;;;;;;;;;6.90;99.90;;;;;;4979383;28;37894;-74
2021/12/05 16:15:46;;;;;;;36.70;25.30;;;6.90;99.90;;;;;;4982616;28;37482;-76
2021/12/05 16:18:13;;;;;;;34.13;23.33;;;6.80;99.90;;;;;;4984847;28;38930;-75
2021/12/05 16:20:51;;;;;;;35.00;24.37;;;6.80;99.90;;;;;;4983425;28;38114;-75
2021/12/05 16:23:25;;;;;;;32.93;23.57;;;6.80;99.90;;;;;;4986199;28;39154;-76
2021/12/05 16:26:21;;;;;;;36.20;24.27;;;6.70;99.90;;;;;;4986898;28;38639;-75
2021/12/05 16:28:53;;;;;;;36.83;24.63;;;6.70;99.90;;;;;;4997077;28;48543;-75
2021/12/05 16:31:27;;;;;;;33.45;22.60;;;6.60;99.90;;;;;;4985215;28;37501;-76
2021/12/05 16:33:58;;;;;;;31.70;22.50;;;6.60;99.90;;;;;;4987694;28;38090;-78
2021/12/05 16:36:35;;;;;;;40.90;25.67;;;6.60;99.90;;;;;;5005247;28;38108;-80
2021/12/05 16:42:16;;;;;;;32.57;22.47;;;6.50;99.90;;;;;;4943600;28;20036;-75
2021/12/05 16:44:49;;;;;;;33.13;22.40;;;6.40;99.90;;;;;;4942326;28;38331;-75
2021/12/05 16:47:19;;;;;;;34.60;22.80;;;6.40;99.90;;;;;;4946095;28;36331;-74
2021/12/05 16:49:50;;;;;;;38.13;23.77;;;6.40;99.90;;;;;;4939997;28;38971;-74
2021/12/05 16:52:24;;;;;;;34.00;22.17;;;6.40;99.90;;;;;;4952171;28;39836;-75
2021/12/05 16:55:01;;;;;;;33.73;23.33;;;6.40;99.90;;;;;;4947767;28;38555;-75
2021/12/05 16:57:35;;;;;;;33.73;23.77;;;6.50;99.90;;;;;;4954516;28;47230;-75
2021/12/05 17:00:09;;;;;;;29.77;21.00;;;6.40;99.90;;;;;;4947322;28;38906;-74
2021/12/05 17:02:51;;;;;;;29.77;20.33;;;6.40;99.90;;;;;;4952070;28;46686;-74
2021/12/05 17:05:21;;;;;;;27.93;20.40;;;6.30;99.90;;;;;;4951930;28;36836;-74
2021/12/05 17:07:55;;;;;;;25.40;18.83;;;6.30;99.90;;;;;;4953997;28;36227;-74
2021/12/05 17:10:24;;;;;;;25.33;17.80;;;6.30;99.90;;;;;;4945849;28;39144;-75
2021/12/05 17:12:56;;;;;;;25.20;17.87;;;6.30;99.90;;;;;;4958083;28;37343;-75
2021/12/05 17:15:26;;;;;;;25.40;18.92;;;6.30;99.90;;;;;;4960913;28;37676;-75
2021/12/05 17:18:02;;;;;;;23.33;17.17;;;6.30;99.90;;;;;;4956612;28;36499;-75
2021/12/05 17:20:35;;;;;;;21.23;15.90;;;6.30;99.90;;;;;;4949579;28;47726;-75
2021/12/05 17:23:14;;;;;;;21.30;15.90;;;6.30;99.90;;;;;;4949948;28;38668;-75
2021/12/05 17:25:43;;;;;;;23.47;16.83;;;6.30;99.90;;;;;;4951197;28;47427;-75
2021/12/05 17:28:30;;;;;;;24.03;17.93;;;6.30;99.90;;;;;;4949103;28;38607;-75
2021/12/05 17:30:59;;;;;;;22.47;16.03;;;6.30;99.90;;;;;;4947229;28;39294;-75
2021/12/05 17:33:36;;;;;;;21.90;16.37;;;6.30;99.90;;;;;;4946844;28;37313;-75
2021/12/05 17:36:18;;;;;;;19.20;16.00;;;6.30;99.90;;;;;;4962975;28;38441;-75
2021/12/05 17:38:46;;;;;;;20.50;14.73;;;6.40;99.90;;;;;;4951859;28;38030;-75
2021/12/05 17:41:12;;;;;;;19.30;15.50;;;6.40;99.90;;;;;;4957343;28;38984;-75
2021/12/05 17:43:38;;;;;;;23.40;17.73;;;6.40;99.90;;;;;;4950169;28;38897;-75
2021/12/05 17:46:05;;;;;;;22.63;17.20;;;6.40;99.90;;;;;;4963371;28;37930;-75
2021/12/05 17:48:33;;;;;;;26.90;19.43;;;6.30;99.90;;;;;;4959709;28;37536;-75
2021/12/05 17:51:05;;;;;;;27.53;19.57;;;6.40;99.90;;;;;;4955796;28;36675;-75
2021/12/05 17:53:35;;;;;;;25.00;18.90;;;6.40;99.90;;;;;;4944714;28;48462;-75
2021/12/05 17:56:09;;;;;;;26.63;19.17;;;6.40;99.90;;;;;;4962273;28;38967;-75
2021/12/05 17:58:51;;;;;;;32.23;21.77;;;6.40;99.90;;;;;;4964350;28;47533;-75
2021/12/05 18:04:02;;;;;;;36.43;21.93;;;6.40;99.90;;;;;;4960006;28;39008;-75
2021/12/05 18:06:29;;;;;;;38.33;22.27;;;6.40;99.90;;;;;;4956627;28;38975;-75
2021/12/05 18:08:55;;;;;;;57.47;29.33;;;6.40;99.90;;;;;;4958098;28;38333;-75
2021/12/05 18:11:23;;;;;;;36.83;22.93;;;6.40;99.90;;;;;;4960423;28;40061;-74
2021/12/05 18:13:54;;;;;;;38.63;21.77;;;6.40;99.90;;;;;;4960791;28;39083;-75
2021/12/05 18:16:23;;;;;;;41.43;24.43;;;6.40;99.90;;;;;;4935731;28;39083;-76
2021/12/05 18:18:52;;;;;;;38.67;22.60;;;6.40;99.90;;;;;;4961125;28;38709;-76
2021/12/05 18:21:20;;;;;;;40.07;22.77;;;6.40;99.90;;;;;;4948491;28;39547;-76
2021/12/05 18:23:46;;;;;;;46.77;27.33;;;6.40;99.90;;;;;;4971619;28;38365;-76
2021/12/05 18:26:13;;;;;;;34.87;22.63;;;6.40;99.90;;;;;;4950566;28;39070;-76
2021/12/05 18:28:41;;;;;;;25.50;18.30;;;6.30;99.90;;;;;;4966456;28;38675;-76
2021/12/05 18:31:16;;;;;;;27.57;21.17;;;6.30;99.90;;;;;;4950992;28;37838;-76
2021/12/05 18:33:43;;;;;;;26.83;18.23;;;6.30;99.90;;;;;;4957122;28;38076;-75
2021/12/05 18:36:10;;;;;;;25.73;17.87;;;6.30;99.90;;;;;;4965540;28;38207;-76
2021/12/05 18:38:38;;;;;;;21.73;15.87;;;6.30;99.90;;;;;;4960615;28;38120;-75
2021/12/05 18:41:08;;;;;;;20.83;15.67;;;6.30;99.90;;;;;;4950796;28;38896;-76
2021/12/05 18:43:37;;;;;;;20.07;15.27;;;6.30;99.90;;;;;;4958370;28;38595;-75
2021/12/05 18:46:05;;;;;;;19.63;14.23;;;6.30;99.90;;;;;;4946703;28;38768;-75
2021/12/05 18:48:32;;;;;;;20.30;15.40;;;6.30;99.90;;;;;;4966012;28;37412;-75
2021/12/05 18:50:59;;;;;;;22.53;16.40;;;6.30;99.90;;;;;;4954604;28;41816;-76
2021/12/05 18:53:25;;;;;;;21.30;16.17;;;6.30;99.90;;;;;;4963280;28;38468;-75
2021/12/05 18:55:52;;;;;;;20.47;15.70;;;6.20;99.90;;;;;;4946557;28;37533;-75
2021/12/05 18:58:22;;;;;;;21.40;16.70;;;6.20;99.90;;;;;;4966218;28;37525;-74